sensor_id;sensor_type;location;lat;lon;timestamp;pressure;altitude;pressure_sealevel;temperature;humidity
38466;BME280;24244;51.950;5.902;2023-04-03T00:00:54;102944.69;;;5.72;68.70
38466;BME280;24244;51.950;5.902;2023-04-03T00:03:23;102943.94;;;5.70;68.87
38466;BME280;24244;51.950;5.902;2023-04-03T00:05:51;102949.22;;;5.70;68.90
38466;BME280;24244;51.950;5.902;2023-04-03T00:08:18;102950.06;;;5.71;68.79
38466;BME280;24244;51.950;5.902;2023-04-03T00:10:45;102953.66;;;5.70;69.01
38466;BME280;24244;51.950;5.902;2023-04-03T00:13:13;102958.22;;;5.68;69.05
38466;BME280;24244;51.950;5.902;2023-04-03T00:15:41;102949.53;;;5.66;68.93
38466;BME280;24244;51.950;5.902;2023-04-03T00:18:08;102951.31;;;5.65;69.15
38466;BME280;24244;51.950;5.902;2023-04-03T00:20:37;102951.50;;;5.62;69.15
38466;BME280;24244;51.950;5.902;2023-04-03T00:23:04;102957.84;;;5.60;69.18
38466;BME280;24244;51.950;5.902;2023-04-03T00:25:35;102961.53;;;5.57;69.09
38466;BME280;24244;51.950;5.902;2023-04-03T00:28:03;102961.63;;;5.56;69.17
38466;BME280;24244;51.950;5.902;2023-04-03T00:30:34;102956.47;;;5.54;69.11
38466;BME280;24244;51.950;5.902;2023-04-03T00:33:02;102961.00;;;5.52;69.23
38466;BME280;24244;51.950;5.902;2023-04-03T00:35:30;102959.28;;;5.51;69.24
38466;BME280;24244;51.950;5.902;2023-04-03T00:37:57;102965.41;;;5.51;69.32
38466;BME280;24244;51.950;5.902;2023-04-03T00:40:26;102970.78;;;5.50;69.41
38466;BME280;24244;51.950;5.902;2023-04-03T00:42:56;102966.53;;;5.47;69.36
38466;BME280;24244;51.950;5.902;2023-04-03T00:45:32;102973.63;;;5.47;69.40
38466;BME280;24244;51.950;5.902;2023-04-03T00:48:03;102969.50;;;5.43;69.56
38466;BME280;24244;51.950;5.902;2023-04-03T00:50:34;102976.56;;;5.42;69.80
38466;BME280;24244;51.950;5.902;2023-04-03T00:53:03;102972.44;;;5.38;69.74
38466;BME280;24244;51.950;5.902;2023-04-03T00:55:34;102974.22;;;5.38;69.44
38466;BME280;24244;51.950;5.902;2023-04-03T00:58:02;102971.75;;;5.35;69.52
38466;BME280;24244;51.950;5.902;2023-04-03T01:00:30;102970.91;;;5.34;69.79
38466;BME280;24244;51.950;5.902;2023-04-03T01:02:57;102977.25;;;5.32;69.74
38466;BME280;24244;51.950;5.902;2023-04-03T01:05:25;102972.84;;;5.32;69.56
38466;BME280;24244;51.950;5.902;2023-04-03T01:07:53;102983.47;;;5.31;69.78
38466;BME280;24244;51.950;5.902;2023-04-03T01:10:20;102984.41;;;5.30;69.79
38466;BME280;24244;51.950;5.902;2023-04-03T01:12:49;102991.66;;;5.26;69.83
38466;BME280;24244;51.950;5.902;2023-04-03T01:15:19;102989.00;;;5.26;70.11
38466;BME280;24244;51.950;5.902;2023-04-03T01:17:48;102994.41;;;5.25;69.87
38466;BME280;24244;51.950;5.902;2023-04-03T01:20:56;102988.47;;;5.21;69.86
38466;BME280;24244;51.950;5.902;2023-04-03T01:23:42;102986.97;;;5.17;70.00
38466;BME280;24244;51.950;5.902;2023-04-03T01:26:18;102987.81;;;5.18;70.13
38466;BME280;24244;51.950;5.902;2023-04-03T01:28:46;102990.47;;;5.18;70.12
38466;BME280;24244;51.950;5.902;2023-04-03T01:31:19;102988.78;;;5.17;70.01
38466;BME280;24244;51.950;5.902;2023-04-03T01:33:51;102989.72;;;5.16;70.21
38466;BME280;24244;51.950;5.902;2023-04-03T01:36:20;102989.03;;;5.12;70.13
38466;BME280;24244;51.950;5.902;2023-04-03T01:38:47;102986.69;;;5.07;70.21
38466;BME280;24244;51.950;5.902;2023-04-03T01:41:14;102997.41;;;5.04;70.45
38466;BME280;24244;51.950;5.902;2023-04-03T01:43:42;103003.53;;;5.05;70.37
38466;BME280;24244;51.950;5.902;2023-04-03T01:46:09;103001.03;;;5.03;70.05
38466;BME280;24244;51.950;5.902;2023-04-03T01:48:36;103005.44;;;5.03;70.40
38466;BME280;24244;51.950;5.902;2023-04-03T01:51:05;103000.25;;;5.01;70.42
38466;BME280;24244;51.950;5.902;2023-04-03T01:53:32;102997.63;;;5.01;70.63
38466;BME280;24244;51.950;5.902;2023-04-03T01:55:59;103002.06;;;5.01;70.51
38466;BME280;24244;51.950;5.902;2023-04-03T01:58:27;103003.00;;;5.00;70.73
38466;BME280;24244;51.950;5.902;2023-04-03T02:00:54;103015.22;;;5.01;70.70
38466;BME280;24244;51.950;5.902;2023-04-03T02:03:39;103012.69;;;4.99;70.93
38466;BME280;24244;51.950;5.902;2023-04-03T02:06:08;103003.28;;;4.95;70.68
38466;BME280;24244;51.950;5.902;2023-04-03T02:08:36;103006.00;;;4.94;71.05
38466;BME280;24244;51.950;5.902;2023-04-03T02:11:03;103006.09;;;4.92;70.68
38466;BME280;24244;51.950;5.902;2023-04-03T02:13:30;103006.19;;;4.91;71.19
38466;BME280;24244;51.950;5.902;2023-04-03T02:15:57;103012.50;;;4.88;71.11
38466;BME280;24244;51.950;5.902;2023-04-03T02:18:25;103013.34;;;4.89;71.05
38466;BME280;24244;51.950;5.902;2023-04-03T02:20:52;103012.59;;;4.87;71.12
38466;BME280;24244;51.950;5.902;2023-04-03T02:23:21;103014.47;;;4.85;71.15
38466;BME280;24244;51.950;5.902;2023-04-03T02:25:50;103011.09;;;4.83;71.26
38466;BME280;24244;51.950;5.902;2023-04-03T02:28:17;103017.41;;;4.80;71.29
38466;BME280;24244;51.950;5.902;2023-04-03T02:30:45;103019.25;;;4.78;71.30
38466;BME280;24244;51.950;5.902;2023-04-03T02:33:12;103017.47;;;4.79;71.21
38466;BME280;24244;51.950;5.902;2023-04-03T02:35:39;103023.59;;;4.79;71.56
38466;BME280;24244;51.950;5.902;2023-04-03T02:38:06;103026.16;;;4.81;71.55
38466;BME280;24244;51.950;5.902;2023-04-03T02:40:34;103023.59;;;4.79;71.37
38466;BME280;24244;51.950;5.902;2023-04-03T02:43:01;103021.91;;;4.78;71.41
38466;BME280;24244;51.950;5.902;2023-04-03T02:45:28;103020.31;;;4.76;71.43
38466;BME280;24244;51.950;5.902;2023-04-03T02:47:55;103028.22;;;4.76;71.62
38466;BME280;24244;51.950;5.902;2023-04-03T02:50:22;103021.25;;;4.75;71.71
38466;BME280;24244;51.950;5.902;2023-04-03T02:52:49;103021.25;;;4.75;71.39
38466;BME280;24244;51.950;5.902;2023-04-03T02:55:16;103019.63;;;4.72;71.58
38466;BME280;24244;51.950;5.902;2023-04-03T02:57:44;103017.94;;;4.71;71.78
38466;BME280;24244;51.950;5.902;2023-04-03T03:00:13;103025.84;;;4.71;71.75
38466;BME280;24244;51.950;5.902;2023-04-03T03:02:41;103026.78;;;4.70;71.80
38466;BME280;24244;51.950;5.902;2023-04-03T03:05:08;103028.69;;;4.68;71.83
38466;BME280;24244;51.950;5.902;2023-04-03T03:07:43;103022.56;;;4.67;71.63
38466;BME280;24244;51.950;5.902;2023-04-03T03:10:10;103028.78;;;4.66;71.73
38466;BME280;24244;51.950;5.902;2023-04-03T03:12:38;103031.50;;;4.65;72.00
38466;BME280;24244;51.950;5.902;2023-04-03T03:15:07;103026.22;;;4.65;72.10
38466;BME280;24244;51.950;5.902;2023-04-03T03:17:35;103027.16;;;4.64;71.96
38466;BME280;24244;51.950;5.902;2023-04-03T03:20:02;103035.06;;;4.64;71.87
38466;BME280;24244;51.950;5.902;2023-04-03T03:22:30;103038.75;;;4.61;71.78
38466;BME280;24244;51.950;5.902;2023-04-03T03:24:58;103037.22;;;4.57;72.08
38466;BME280;24244;51.950;5.902;2023-04-03T03:27:25;103042.56;;;4.56;72.17
38466;BME280;24244;51.950;5.902;2023-04-03T03:32:58;103051.31;;;4.56;71.89
38466;BME280;24244;51.950;5.902;2023-04-03T03:35:25;103048.75;;;4.55;72.13
38466;BME280;24244;51.950;5.902;2023-04-03T03:37:52;103055.00;;;4.54;72.17
38466;BME280;24244;51.950;5.902;2023-04-03T03:40:19;103048.03;;;4.53;72.20
38466;BME280;24244;51.950;5.902;2023-04-03T03:42:46;103049.81;;;4.52;71.97
38466;BME280;24244;51.950;5.902;2023-04-03T03:45:14;103046.41;;;4.50;72.03
38466;BME280;24244;51.950;5.902;2023-04-03T03:47:41;103054.31;;;4.50;72.22
38466;BME280;24244;51.950;5.902;2023-04-03T03:50:11;103055.34;;;4.48;72.38
38466;BME280;24244;51.950;5.902;2023-04-03T03:52:38;103053.75;;;4.45;71.97
38466;BME280;24244;51.950;5.902;2023-04-03T03:55:06;103054.00;;;4.41;72.36
38466;BME280;24244;51.950;5.902;2023-04-03T03:57:35;103055.97;;;4.37;72.22
38466;BME280;24244;51.950;5.902;2023-04-03T04:00:02;103055.22;;;4.35;72.49
38466;BME280;24244;51.950;5.902;2023-04-03T04:02:30;103065.75;;;4.35;72.45
38466;BME280;24244;51.950;5.902;2023-04-03T04:04:57;103062.25;;;4.34;72.32
38466;BME280;24244;51.950;5.902;2023-04-03T04:07:27;103058.88;;;4.32;72.41
38466;BME280;24244;51.950;5.902;2023-04-03T04:09:55;103061.69;;;4.29;72.59
38466;BME280;24244;51.950;5.902;2023-04-03T04:12:22;103061.78;;;4.28;72.73
38466;BME280;24244;51.950;5.902;2023-04-03T04:14:49;103068.81;;;4.27;72.60
38466;BME280;24244;51.950;5.902;2023-04-03T04:17:16;103072.38;;;4.26;72.47
38466;BME280;24244;51.950;5.902;2023-04-03T04:19:44;103061.13;;;4.24;72.83
38466;BME280;24244;51.950;5.902;2023-04-03T04:22:11;103062.97;;;4.22;72.79
38466;BME280;24244;51.950;5.902;2023-04-03T04:24:42;103048.03;;;4.23;72.75
38466;BME280;24244;51.950;5.902;2023-04-03T04:27:09;103071.72;;;4.23;72.61
38466;BME280;24244;51.950;5.902;2023-04-03T04:29:36;103069.19;;;4.21;72.65
38466;BME280;24244;51.950;5.902;2023-04-03T04:32:05;103068.31;;;4.21;72.69
38466;BME280;24244;51.950;5.902;2023-04-03T04:34:32;103070.09;;;4.20;72.69
38466;BME280;24244;51.950;5.902;2023-04-03T04:36:59;103070.09;;;4.20;72.52
38466;BME280;24244;51.950;5.902;2023-04-03T04:39:26;103064.19;;;4.17;72.77
38466;BME280;24244;51.950;5.902;2023-04-03T04:41:55;103069.63;;;4.14;72.88
38466;BME280;24244;51.950;5.902;2023-04-03T04:44:21;103071.59;;;4.10;72.74
38466;BME280;24244;51.950;5.902;2023-04-03T04:46:48;103078.06;;;4.05;72.72
38466;BME280;24244;51.950;5.902;2023-04-03T04:49:15;103078.22;;;4.02;72.60
38466;BME280;24244;51.950;5.902;2023-04-03T04:51:42;103080.94;;;4.00;72.92
38466;BME280;24244;51.950;5.902;2023-04-03T04:54:19;103086.13;;;4.02;72.76
38466;BME280;24244;51.950;5.902;2023-04-03T04:56:47;103081.84;;;3.99;73.06
38466;BME280;24244;51.950;5.902;2023-04-03T04:59:16;103088.91;;;3.99;73.19
38466;BME280;24244;51.950;5.902;2023-04-03T05:01:45;103096.06;;;3.97;72.97
38466;BME280;24244;51.950;5.902;2023-04-03T05:04:13;103097.91;;;3.94;72.95
38466;BME280;24244;51.950;5.902;2023-04-03T05:06:40;103091.81;;;3.94;72.91
38466;BME280;24244;51.950;5.902;2023-04-03T05:09:07;103098.19;;;3.90;72.79
38466;BME280;24244;51.950;5.902;2023-04-03T05:11:33;103096.63;;;3.86;73.25
38466;BME280;24244;51.950;5.902;2023-04-03T05:14:02;103101.13;;;3.84;73.16
38466;BME280;24244;51.950;5.902;2023-04-03T05:16:33;103103.88;;;3.82;72.97
38466;BME280;24244;51.950;5.902;2023-04-03T05:19:00;103100.53;;;3.79;73.39
38466;BME280;24244;51.950;5.902;2023-04-03T05:21:27;103096.31;;;3.76;73.06
38466;BME280;24244;51.950;5.902;2023-04-03T05:23:59;103099.97;;;3.74;73.19
38466;BME280;24244;51.950;5.902;2023-04-03T05:26:30;103103.50;;;3.73;73.20
38466;BME280;24244;51.950;5.902;2023-04-03T05:28:59;103096.56;;;3.72;73.10
38466;BME280;24244;51.950;5.902;2023-04-03T05:31:29;103101.16;;;3.68;73.15
38466;BME280;24244;51.950;5.902;2023-04-03T05:34:10;103098.66;;;3.65;73.12
38466;BME280;24244;51.950;5.902;2023-04-03T05:36:37;103110.97;;;3.65;73.13
38466;BME280;24244;51.950;5.902;2023-04-03T05:39:04;103118.88;;;3.65;73.34
38466;BME280;24244;51.950;5.902;2023-04-03T05:41:31;103125.91;;;3.64;73.19
38466;BME280;24244;51.950;5.902;2023-04-03T05:43:58;103129.31;;;3.66;73.18
38466;BME280;24244;51.950;5.902;2023-04-03T05:46:26;103123.34;;;3.63;73.32
38466;BME280;24244;51.950;5.902;2023-04-03T05:48:54;103133.03;;;3.62;73.29
38466;BME280;24244;51.950;5.902;2023-04-03T05:51:28;103133.88;;;3.63;73.05
38466;BME280;24244;51.950;5.902;2023-04-03T05:54:00;103126.94;;;3.62;72.74
38466;BME280;24244;51.950;5.902;2023-04-03T05:56:29;103127.88;;;3.61;73.10
38466;BME280;24244;51.950;5.902;2023-04-03T05:58:56;103128.59;;;3.63;73.04
38466;BME280;24244;51.950;5.902;2023-04-03T06:01:23;103136.41;;;3.64;73.07
38466;BME280;24244;51.950;5.902;2023-04-03T06:03:50;103136.41;;;3.64;73.20
38466;BME280;24244;51.950;5.902;2023-04-03T06:06:17;103133.72;;;3.66;73.20
38466;BME280;24244;51.950;5.902;2023-04-03T06:08:45;103137.19;;;3.66;73.01
38466;BME280;24244;51.950;5.902;2023-04-03T06:11:12;103141.69;;;3.64;72.88
38466;BME280;24244;51.950;5.902;2023-04-03T06:13:44;103139.13;;;3.63;72.97
38466;BME280;24244;51.950;5.902;2023-04-03T06:16:12;103140.94;;;3.62;73.06
38466;BME280;24244;51.950;5.902;2023-04-03T06:18:41;103137.47;;;3.62;73.09
38466;BME280;24244;51.950;5.902;2023-04-03T06:21:09;103151.28;;;3.65;73.15
38466;BME280;24244;51.950;5.902;2023-04-03T06:23:36;103153.91;;;3.65;72.95
38466;BME280;24244;51.950;5.902;2023-04-03T06:26:04;103153.91;;;3.65;73.04
38466;BME280;24244;51.950;5.902;2023-04-03T06:28:32;103150.34;;;3.66;73.07
38466;BME280;24244;51.950;5.902;2023-04-03T06:30:59;103152.91;;;3.68;72.76
38466;BME280;24244;51.950;5.902;2023-04-03T06:33:27;103150.34;;;3.66;73.00
38466;BME280;24244;51.950;5.902;2023-04-03T06:35:57;103160.00;;;3.66;73.07
38466;BME280;24244;51.950;5.902;2023-04-03T06:38:25;103163.41;;;3.68;72.81
38466;BME280;24244;51.950;5.902;2023-04-03T06:40:52;103163.41;;;3.68;73.00
38466;BME280;24244;51.950;5.902;2023-04-03T06:43:21;103156.47;;;3.67;72.75
38466;BME280;24244;51.950;5.902;2023-04-03T06:45:49;103163.41;;;3.68;72.78
38466;BME280;24244;51.950;5.902;2023-04-03T06:48:17;103169.41;;;3.70;72.82
38466;BME280;24244;51.950;5.902;2023-04-03T06:50:44;103170.19;;;3.72;72.99
38466;BME280;24244;51.950;5.902;2023-04-03T06:53:11;103171.91;;;3.73;72.99
38466;BME280;24244;51.950;5.902;2023-04-03T06:55:40;103161.31;;;3.74;72.71
38466;BME280;24244;51.950;5.902;2023-04-03T06:58:07;103167.22;;;3.78;73.00
38466;BME280;24244;51.950;5.902;2023-04-03T07:00:39;103168.09;;;3.78;72.85
38466;BME280;24244;51.950;5.902;2023-04-03T07:03:06;103176.75;;;3.80;73.10
38466;BME280;24244;51.950;5.902;2023-04-03T07:05:33;103169.72;;;3.81;73.02
38466;BME280;24244;51.950;5.902;2023-04-03T07:08:01;103183.63;;;3.83;72.79
38466;BME280;24244;51.950;5.902;2023-04-03T07:10:28;103185.31;;;3.84;72.84
38466;BME280;24244;51.950;5.902;2023-04-03T07:12:54;103187.00;;;3.85;72.59
38466;BME280;24244;51.950;5.902;2023-04-03T07:15:21;103187.00;;;3.85;72.68
38466;BME280;24244;51.950;5.902;2023-04-03T07:17:49;103194.75;;;3.88;72.50
38466;BME280;24244;51.950;5.902;2023-04-03T07:20:17;103200.78;;;3.90;72.47
38466;BME280;24244;51.950;5.902;2023-04-03T07:22:44;103197.03;;;3.94;72.74
38466;BME280;24244;51.950;5.902;2023-04-03T07:25:12;103203.81;;;3.98;72.44
38466;BME280;24244;51.950;5.902;2023-04-03T07:27:39;103206.22;;;4.03;72.55
38466;BME280;24244;51.950;5.902;2023-04-03T07:30:08;103213.00;;;4.07;72.45
38466;BME280;24244;51.950;5.902;2023-04-03T07:32:36;103199.69;;;4.10;72.44
38466;BME280;24244;51.950;5.902;2023-04-03T07:35:06;103202.13;;;4.13;72.07
38466;BME280;24244;51.950;5.902;2023-04-03T07:37:33;103214.28;;;4.15;72.24
38466;BME280;24244;51.950;5.902;2023-04-03T07:40:00;103209.81;;;4.17;72.32
38466;BME280;24244;51.950;5.902;2023-04-03T07:42:30;103211.41;;;4.20;72.25
38466;BME280;24244;51.950;5.902;2023-04-03T07:44:56;103220.06;;;4.22;72.11
38466;BME280;24244;51.950;5.902;2023-04-03T07:47:23;103224.31;;;4.24;71.97
38466;BME280;24244;51.950;5.902;2023-04-03T07:49:50;103212.69;;;4.28;72.06
38466;BME280;24244;51.950;5.902;2023-04-03T07:52:19;103212.31;;;4.34;72.28
38466;BME280;24244;51.950;5.902;2023-04-03T07:54:46;103208.59;;;4.39;72.01
38466;BME280;24244;51.950;5.902;2023-04-03T07:57:14;103208.41;;;4.42;71.26
38466;BME280;24244;51.950;5.902;2023-04-03T07:59:41;103221.34;;;4.46;71.36
38466;BME280;24244;51.950;5.902;2023-04-03T08:02:09;103222.00;;;4.50;71.60
38466;BME280;24244;51.950;5.902;2023-04-03T08:04:36;103216.38;;;4.56;71.58
38466;BME280;24244;51.950;5.902;2023-04-03T08:07:04;103212.66;;;4.60;71.33
38466;BME280;24244;51.950;5.902;2023-04-03T08:09:35;103210.59;;;4.65;71.16
38466;BME280;24244;51.950;5.902;2023-04-03T08:12:03;103215.53;;;4.71;71.33
38466;BME280;24244;51.950;5.902;2023-04-03T08:14:30;103220.53;;;4.76;71.04
38466;BME280;24244;51.950;5.902;2023-04-03T08:16:58;103223.75;;;4.81;70.67
38466;BME280;24244;51.950;5.902;2023-04-03T08:19:25;103219.91;;;4.86;70.79
38466;BME280;24244;51.950;5.902;2023-04-03T08:21:54;103226.69;;;4.90;70.63
38466;BME280;24244;51.950;5.902;2023-04-03T08:24:22;103217.59;;;4.96;70.58
38466;BME280;24244;51.950;5.902;2023-04-03T08:26:50;103221.75;;;5.00;70.32
38466;BME280;24244;51.950;5.902;2023-04-03T08:29:18;103223.16;;;5.05;68.95
38466;BME280;24244;51.950;5.902;2023-04-03T08:31:47;103231.75;;;5.09;69.33
38466;BME280;24244;51.950;5.902;2023-04-03T08:34:16;103232.41;;;5.12;69.57
38466;BME280;24244;51.950;5.902;2023-04-03T08:36:43;103221.69;;;5.16;68.99
38466;BME280;24244;51.950;5.902;2023-04-03T08:39:12;103239.78;;;5.22;69.12
38466;BME280;24244;51.950;5.902;2023-04-03T08:41:42;103237.63;;;5.28;68.89
38466;BME280;24244;51.950;5.902;2023-04-03T08:44:24;103230.28;;;5.33;68.46
38466;BME280;24244;51.950;5.902;2023-04-03T08:47:02;103237.75;;;5.41;68.23
38466;BME280;24244;51.950;5.902;2023-04-03T08:49:32;103230.31;;;5.47;68.09
38466;BME280;24244;51.950;5.902;2023-04-03T08:52:04;103243.88;;;5.56;67.78
38466;BME280;24244;51.950;5.902;2023-04-03T08:54:34;103237.28;;;5.63;67.64
38466;BME280;24244;51.950;5.902;2023-04-03T08:57:04;103233.34;;;5.70;67.18
38466;BME280;24244;51.950;5.902;2023-04-03T08:59:35;103238.34;;;5.74;66.28
38466;BME280;24244;51.950;5.902;2023-04-03T09:02:21;103223.16;;;5.78;65.79
38466;BME280;24244;51.950;5.902;2023-04-03T09:04:50;103227.34;;;5.82;65.63
38466;BME280;24244;51.950;5.902;2023-04-03T09:07:22;103221.75;;;5.86;64.59
38466;BME280;24244;51.950;5.902;2023-04-03T09:10:01;103233.66;;;5.94;64.10
38466;BME280;24244;51.950;5.902;2023-04-03T09:12:34;103230.63;;;6.00;64.26
38466;BME280;24244;51.950;5.902;2023-04-03T09:15:10;103236.47;;;6.05;63.84
38466;BME280;24244;51.950;5.902;2023-04-03T09:17:56;103233.56;;;6.09;62.67
38466;BME280;24244;51.950;5.902;2023-04-03T09:20:30;103243.72;;;6.15;62.47
38466;BME280;24244;51.950;5.902;2023-04-03T09:23:20;103237.13;;;6.22;62.39
38466;BME280;24244;51.950;5.902;2023-04-03T09:25:51;103242.09;;;6.27;60.90
38466;BME280;24244;51.950;5.902;2023-04-03T09:28:19;103233.78;;;6.33;60.60
38466;BME280;24244;51.950;5.902;2023-04-03T09:30:48;103228.31;;;6.36;60.07
38466;BME280;24244;51.950;5.902;2023-04-03T09:33:20;103228.94;;;6.40;59.15
38466;BME280;24244;51.950;5.902;2023-04-03T09:35:52;103229.63;;;6.43;59.99
38466;BME280;24244;51.950;5.902;2023-04-03T09:38:21;103224.78;;;6.50;60.65
38466;BME280;24244;51.950;5.902;2023-04-03T09:41:04;103228.72;;;6.57;59.58
38466;BME280;24244;51.950;5.902;2023-04-03T09:43:33;103223.25;;;6.60;59.32
38466;BME280;24244;51.950;5.902;2023-04-03T09:46:21;103222.75;;;6.67;59.00
38466;BME280;24244;51.950;5.902;2023-04-03T09:48:56;103219.88;;;6.71;57.76
38466;BME280;24244;51.950;5.902;2023-04-03T09:51:38;103215.03;;;6.77;58.11
38466;BME280;24244;51.950;5.902;2023-04-03T09:54:33;103222.56;;;6.83;58.27
38466;BME280;24244;51.950;5.902;2023-04-03T09:57:12;103209.91;;;6.88;56.64
38466;BME280;24244;51.950;5.902;2023-04-03T09:59:45;103199.00;;;6.93;56.91
38466;BME280;24244;51.950;5.902;2023-04-03T10:02:34;103201.25;;;6.99;56.46
38466;BME280;24244;51.950;5.902;2023-04-03T10:05:03;103207.81;;;7.06;56.07
38466;BME280;24244;51.950;5.902;2023-04-03T10:07:37;103195.13;;;7.11;56.22
38466;BME280;24244;51.950;5.902;2023-04-03T10:10:19;103207.81;;;7.19;56.68
38466;BME280;24244;51.950;5.902;2023-04-03T10:13:05;103198.44;;;7.27;55.85
38466;BME280;24244;51.950;5.902;2023-04-03T10:15:51;103200.66;;;7.33;55.46
38466;BME280;24244;51.950;5.902;2023-04-03T10:18:40;103193.13;;;7.40;54.39
38466;BME280;24244;51.950;5.902;2023-04-03T10:21:16;103195.69;;;7.41;53.49
38466;BME280;24244;51.950;5.902;2023-04-03T10:24:00;103189.00;;;7.48;54.23
38466;BME280;24244;51.950;5.902;2023-04-03T10:26:41;103191.22;;;7.55;54.09
38466;BME280;24244;51.950;5.902;2023-04-03T10:29:21;103182.84;;;7.61;54.62
38466;BME280;24244;51.950;5.902;2023-04-03T10:32:01;103171.09;;;7.65;53.75
38466;BME280;24244;51.950;5.902;2023-04-03T10:34:38;103174.16;;;7.71;54.19
38466;BME280;24244;51.950;5.902;2023-04-03T10:37:14;103175.53;;;7.77;54.24
38466;BME280;24244;51.950;5.902;2023-04-03T10:39:52;103168.00;;;7.83;54.23
38466;BME280;24244;51.950;5.902;2023-04-03T10:42:29;103169.16;;;7.92;53.96
38466;BME280;24244;51.950;5.902;2023-04-03T10:45:15;103158.22;;;7.97;53.72
38466;BME280;24244;51.950;5.902;2023-04-03T10:47:51;103151.75;;;8.01;53.42
38466;BME280;24244;51.950;5.902;2023-04-03T10:50:35;103151.41;;;8.05;53.20
38466;BME280;24244;51.950;5.902;2023-04-03T10:53:10;103144.81;;;8.11;52.73
38466;BME280;24244;51.950;5.902;2023-04-03T10:55:50;103147.75;;;8.19;53.25
38466;BME280;24244;51.950;5.902;2023-04-03T10:58:25;103133.09;;;8.26;53.39
38466;BME280;24244;51.950;5.902;2023-04-03T11:01:01;103130.03;;;8.32;52.81
38466;BME280;24244;51.950;5.902;2023-04-03T11:03:32;103126.09;;;8.38;53.17
38466;BME280;24244;51.950;5.902;2023-04-03T11:06:13;103123.09;;;8.42;52.46
38466;BME280;24244;51.950;5.902;2023-04-03T11:08:44;103119.25;;;8.46;51.86
38466;BME280;24244;51.950;5.902;2023-04-03T11:11:16;103129.41;;;8.52;51.12
38466;BME280;24244;51.950;5.902;2023-04-03T11:13:51;103129.81;;;8.59;51.59
38466;BME280;24244;51.950;5.902;2023-04-03T11:16:24;103117.88;;;8.64;50.62
38466;BME280;24244;51.950;5.902;2023-04-03T11:18:56;103123.56;;;8.71;50.62
38466;BME280;24244;51.950;5.902;2023-04-03T11:21:29;103114.41;;;8.75;50.13
38466;BME280;24244;51.950;5.902;2023-04-03T11:23:58;103116.00;;;8.78;49.19
38466;BME280;24244;51.950;5.902;2023-04-03T11:26:28;103120.09;;;8.82;48.93
38466;BME280;24244;51.950;5.902;2023-04-03T11:28:59;103119.75;;;8.86;48.96
38466;BME280;24244;51.950;5.902;2023-04-03T11:31:45;103114.72;;;8.94;48.76
38466;BME280;24244;51.950;5.902;2023-04-03T11:34:26;103117.00;;;8.99;49.50
38466;BME280;24244;51.950;5.902;2023-04-03T11:37:05;103109.63;;;9.02;49.26
38466;BME280;24244;51.950;5.902;2023-04-03T11:39:39;103120.97;;;9.04;49.57
38466;BME280;24244;51.950;5.902;2023-04-03T11:42:23;103110.84;;;9.10;49.40
38466;BME280;24244;51.950;5.902;2023-04-03T11:45:17;103100.00;;;9.13;49.84
38466;BME280;24244;51.950;5.902;2023-04-03T11:47:54;103104.25;;;9.15;49.12
38466;BME280;24244;51.950;5.902;2023-04-03T11:50:47;103104.59;;;9.22;49.41
38466;BME280;24244;51.950;5.902;2023-04-03T11:53:34;103095.19;;;9.29;50.07
38466;BME280;24244;51.950;5.902;2023-04-03T11:56:29;103100.88;;;9.35;49.89
38466;BME280;24244;51.950;5.902;2023-04-03T11:59:21;103093.38;;;9.40;50.30
38466;BME280;24244;51.950;5.902;2023-04-03T12:01:54;103100.00;;;9.46;50.12
38466;BME280;24244;51.950;5.902;2023-04-03T12:04:24;103099.78;;;9.49;49.43
38466;BME280;24244;51.950;5.902;2023-04-03T12:06:59;103076.63;;;9.51;49.02
38466;BME280;24244;51.950;5.902;2023-04-03T12:09:59;103084.31;;;9.54;49.17
38466;BME280;24244;51.950;5.902;2023-04-03T12:12:34;103072.50;;;9.58;48.89
38466;BME280;24244;51.950;5.902;2023-04-03T12:15:37;103072.34;;;9.60;48.90
38466;BME280;24244;51.950;5.902;2023-04-03T12:21:19;103064.88;;;9.65;47.60
38466;BME280;24244;51.950;5.902;2023-04-03T12:24:03;103069.09;;;9.67;48.06
38466;BME280;24244;51.950;5.902;2023-04-03T12:26:46;103073.19;;;9.71;49.10
38466;BME280;24244;51.950;5.902;2023-04-03T12:29:21;103068.34;;;9.76;48.36
38466;BME280;24244;51.950;5.902;2023-04-03T12:32:03;103068.81;;;9.81;48.96
38466;BME280;24244;51.950;5.902;2023-04-03T12:34:49;103056.88;;;9.87;48.87
38466;BME280;24244;51.950;5.902;2023-04-03T12:37:34;103062.50;;;9.94;49.62
38466;BME280;24244;51.950;5.902;2023-04-03T12:40:10;103062.13;;;9.98;49.54
38466;BME280;24244;51.950;5.902;2023-04-03T12:43:01;103072.53;;;10.01;49.30
38466;BME280;24244;51.950;5.902;2023-04-03T12:45:40;103057.38;;;10.02;49.20
38466;BME280;24244;51.950;5.902;2023-04-03T12:48:14;103052.81;;;10.04;48.96
38466;BME280;24244;51.950;5.902;2023-04-03T12:50:43;103059.94;;;10.03;48.31
38466;BME280;24244;51.950;5.902;2023-04-03T12:53:15;103049.19;;;10.05;48.82
38466;BME280;24244;51.950;5.902;2023-04-03T12:55:44;103039.16;;;10.08;48.83
38466;BME280;24244;51.950;5.902;2023-04-03T12:58:21;103046.75;;;10.13;47.35
38466;BME280;24244;51.950;5.902;2023-04-03T13:01:00;103039.25;;;10.18;48.14
38466;BME280;24244;51.950;5.902;2023-04-03T13:03:30;103031.88;;;10.22;48.37
38466;BME280;24244;51.950;5.902;2023-04-03T13:06:00;103033.56;;;10.23;48.45
38466;BME280;24244;51.950;5.902;2023-04-03T13:08:29;103038.50;;;10.27;48.77
38466;BME280;24244;51.950;5.902;2023-04-03T13:11:00;103029.28;;;10.31;48.90
38466;BME280;24244;51.950;5.902;2023-04-03T13:13:32;103026.63;;;10.31;48.47
38466;BME280;24244;51.950;5.902;2023-04-03T13:15:59;103025.91;;;10.29;48.01
38466;BME280;24244;51.950;5.902;2023-04-03T13:18:36;103024.22;;;10.28;47.75
38466;BME280;24244;51.950;5.902;2023-04-03T13:21:05;103013.47;;;10.30;47.99
38466;BME280;24244;51.950;5.902;2023-04-03T13:23:36;103014.16;;;10.32;47.67
38466;BME280;24244;51.950;5.902;2023-04-03T13:26:05;103006.66;;;10.37;48.18
38466;BME280;24244;51.950;5.902;2023-04-03T13:28:35;102991.88;;;10.44;47.62